Stetsonville, WI (54480)

2:07 PM CST on December 22, 2014 (GMT -0600)
Taylor County | Change Station
CLOSE
Current Station
Airport
Location: Medford,
Elevation: 1470 ft
Nearby Weather Stations
Active Advisory: Winter Weather Advisory

Elev 1470 ft 45.10 °N, 90.30 °W | Updated 12 minutes ago

Overcast
Overcast
33 °F
Feels Like 27 °F
N
7
Wind Variable Wind from ESE

Today
High -- | Low -- °F
--% Chance of Precip.
Yesterday
High -- | Low -- °F
Precip. -- in
7:37 AM 4:22 PM
New Moon, 1% visible
Pressure 29.71 in
Visibility 4.0 miles
Clouds Mostly Cloudy 900 ft
Overcast 2600 ft
Windchill 27 °F
Dew Point 32 °F
Humidity 93%
Rainfall 0.00 in
Snow Depth Not available.
UV 0 out of 12
Pollen .10 out of 12
Air Quality Not available.
Flu Activity Not available.
METAR KMDZ 221955Z AUTO 11006KT 4SM BR BKN009 OVC026 01/00 A2971 RMK AO2 T00081002

More Conditions Fewer Conditions

Pressure 29.71 in
Visibility 4.0 miles
Clouds Mostly Cloudy 900 ft
Overcast 2600 ft
Windchill 27 °F
Dew Point 32 °F
Humidity 93%
Rainfall 0.00 in
Snow Depth Not available.
UV 0 out of 12
Pollen .10 out of 12
Air Quality Not available.
Flu Activity Not available.
METAR KMDZ 221955Z AUTO 11006KT 4SM BR BKN009 OVC026 01/00 A2971 RMK AO2 T00081002

More Conditions Fewer Conditions

10-Day Weather Forecast

Almanac

Astronomy

Dec. 22, 2014 Rise Set
Actual Time
Civil Twilight
Nautical Twilight
Astronomical Twilight
Moon
Length of Visible Light
Length of Day
Tomorrow will be .
, % of the Moon is Illuminated

Today's Extremes

State Highs State Lows

Community

WunderPhotos

Upload Photos

1,779,708 photos uploaded!

WunderBlogs® & News

Nearby

Air Quality

  Air Quality AQ Index Pollutant
Not available.

Snow Depth

Station Depth Elevation

Earthquake Activity

City Distance Mag. Time & Date
Minimum magnitude displayed is 2.5.

Coastal Water Temperatures

Place Temperature

Nearby Weather Stations